Time;durP1;ratioP1;P1;durP2;ratioP2;P2;SDS_P1;SDS_P2;PMS_P1;PMS_P2;Temp;Humidity;BMP_temperature;BMP_pressure;BME280_temperature;BME280_humidity;BME280_pressure;Samples;Min_cycle;Max_cycle;Signal;HPM_P1;HPM_P2
2022/06/01 00:00:46;;;;;;;9.90;6.63;;;;;;;19.85;50.28;101452.03;5032913;28;20503;-70
2022/06/01 00:03:11;;;;;;;8.00;5.23;;;;;;;19.61;50.85;101449.38;5026324;28;20112;-70
2022/06/01 00:05:37;;;;;;;6.20;5.00;;;;;;;20.41;48.30;101451.50;5031258;28;20186;-70
2022/06/01 00:08:03;;;;;;;7.80;5.33;;;;;;;20.63;48.27;101447.97;5032914;28;20022;-70
2022/06/01 00:10:29;;;;;;;7.57;4.83;;;;;;;20.62;48.08;101448.88;5017200;28;20112;-70
2022/06/01 00:12:54;;;;;;;8.40;5.03;;;;;;;20.14;51.50;101442.88;5062958;28;20235;-70
2022/06/01 00:15:22;;;;;;;6.27;4.30;;;;;;;20.88;47.66;101433.66;5014454;28;20022;-70
2022/06/01 00:17:47;;;;;;;9.67;4.40;;;;;;;21.09;47.28;101431.81;5014182;28;20030;-70
2022/06/01 00:20:14;;;;;;;5.23;3.50;;;;;;;21.11;47.18;101433.50;5014141;28;20558;-71
2022/06/01 00:22:41;;;;;;;4.90;4.03;;;;;;;21.16;47.90;101423.53;5061785;28;20029;-70
2022/06/01 00:25:07;;;;;;;6.63;3.57;;;;;;;20.64;49.44;101420.47;5031128;28;20033;-70
2022/06/01 00:27:34;;;;;;;7.90;4.03;;;;;;;20.55;49.16;101415.56;5032179;28;20528;-70
2022/06/01 00:30:00;;;;;;;4.60;3.90;;;;;;;20.83;47.85;101416.13;5033945;28;20066;-71
2022/06/01 00:32:27;;;;;;;4.53;3.93;;;;;;;20.46;47.81;101415.03;5031967;28;20079;-71
2022/06/01 00:34:53;;;;;;;4.50;4.03;;;;;;;20.51;47.68;101425.44;5033906;28;20025;-71
2022/06/01 00:37:19;;;;;;;4.07;3.67;;;;;;;20.31;47.73;101420.97;5031710;28;20029;-71
2022/06/01 00:39:44;;;;;;;4.73;3.63;;;;;;;20.33;49.22;101416.47;5030750;28;20024;-71
2022/06/01 00:42:13;;;;;;;4.13;3.67;;;;;;;20.82;46.96;101417.03;5065296;28;20025;-71
2022/06/01 00:44:39;;;;;;;5.40;3.43;;;;;;;20.48;48.49;101426.47;5065544;28;20025;-70
2022/06/01 00:47:05;;;;;;;4.80;3.63;;;;;;;20.48;47.53;101426.47;5032470;28;20053;-71
2022/06/01 00:49:31;;;;;;;3.63;3.23;;;;;;;20.58;47.61;101421.63;5031535;28;20439;-71
2022/06/01 00:51:56;;;;;;;3.73;3.37;;;;;;;20.62;47.03;101427.63;5030966;28;20087;-71
2022/06/01 00:54:22;;;;;;;3.97;3.40;;;;;;;20.80;47.05;101421.56;5029043;28;20490;-71
2022/06/01 00:56:53;;;;;;;5.40;3.20;;;;;;;20.31;47.98;101434.25;5033725;28;20048;-71
2022/06/01 00:59:22;;;;;;;4.40;3.57;;;;;;;20.79;46.48;101430.47;5031472;28;20048;-71
2022/06/01 01:01:50;;;;;;;3.80;3.50;;;;;;;20.73;46.94;101433.41;5031504;28;20025;-71
2022/06/01 01:04:15;;;;;;;5.07;3.70;;;;;;;19.38;49.50;101436.97;5023569;28;20029;-71
2022/06/01 01:06:43;;;;;;;3.43;3.10;;;;;;;19.72;49.44;101439.19;5033449;28;20032;-71
2022/06/01 01:09:10;;;;;;;4.70;3.40;;;;;;;19.77;49.49;101439.91;5022851;28;20290;-71
2022/06/01 01:11:43;;;;;;;3.73;3.07;;;;;;;20.11;48.11;101449.22;5031024;28;20032;-71
2022/06/01 01:14:08;;;;;;;4.28;3.80;;;;;;;19.98;49.06;101442.66;5031157;28;20044;-71
2022/06/01 01:16:35;;;;;;;4.47;4.07;;;;;;;20.74;47.61;101443.06;5031426;28;20470;-71
2022/06/01 01:19:01;;;;;;;4.27;3.80;;;;;;;20.82;46.85;101435.63;5031385;28;20033;-71
2022/06/01 01:21:54;;;;;;;4.70;3.87;;;;;;;20.93;46.95;101436.97;5030472;28;20073;-71
2022/06/01 01:24:42;;;;;;;5.70;3.60;;;;;;;20.79;47.45;101427.81;5032381;28;20033;-71
2022/06/01 01:27:08;;;;;;;5.33;4.63;;;;;;;19.67;49.01;101434.09;5031761;28;20549;-71
2022/06/01 01:29:39;;;;;;;6.20;4.30;;;;;;;19.80;48.90;101444.25;5030897;28;20117;-72
2022/06/01 01:32:07;;;;;;;5.17;4.33;;;;;;;20.58;47.49;101437.53;5030140;28;20396;-70
2022/06/01 01:34:35;;;;;;;7.90;4.97;;;;;;;19.92;49.30;101433.16;5032396;28;20108;-71
2022/06/01 01:37:04;;;;;;;5.87;4.50;;;;;;;20.72;47.24;101422.81;5030791;28;20037;-70
2022/06/01 01:39:32;;;;;;;9.03;5.43;;;;;;;20.55;47.24;101412.91;5025337;28;20136;-70
2022/06/01 01:41:58;;;;;;;7.20;5.10;;;;;;;20.19;49.04;101425.00;5031248;28;20030;-70
2022/06/01 01:44:52;;;;;;;7.40;5.40;;;;;;;20.59;47.41;101412.69;5043400;28;20078;-71
2022/06/01 01:47:18;;;;;;;6.73;5.03;;;;;;;20.08;48.25;101420.13;5034072;28;20044;-70
2022/06/01 01:49:43;;;;;;;8.60;6.30;;;;;;;20.75;45.92;101412.94;5028128;28;20017;-70
2022/06/01 01:52:13;;;;;;;8.83;6.53;;;;;;;20.15;48.21;101416.31;5031245;28;20110;-70
2022/06/01 01:54:47;;;;;;;11.37;6.97;;;;;;;20.32;48.28;101412.09;5030909;28;20029;-70
2022/06/01 01:57:34;;;;;;;9.60;7.40;;;;;;;20.51;47.79;101399.75;5029765;28;20026;-70
2022/06/01 02:00:21;;;;;;;11.77;7.87;;;;;;;20.39;47.93;101410.91;5027271;28;20060;-71
2022/06/01 02:02:46;;;;;;;10.20;8.30;;;;;;;20.21;48.38;101416.97;5030587;28;20045;-70
2022/06/01 02:08:30;;;;;;;12.63;9.20;;;;;;;20.72;46.76;101413.06;5032058;28;20060;-71
2022/06/01 02:13:55;;;;;;;12.87;9.40;;;;;;;20.54;47.92;101425.31;5018881;28;20045;-70
2022/06/01 02:16:24;;;;;;;12.00;8.57;;;;;;;20.60;46.95;101413.56;5030660;28;20066;-70
2022/06/01 02:18:53;;;;;;;16.03;9.93;;;;;;;20.96;47.05;101416.44;5030101;28;20478;-70
2022/06/01 02:21:24;;;;;;;12.63;9.83;;;;;;;21.15;46.23;101405.84;5030801;28;20057;-71
2022/06/01 02:23:50;;;;;;;13.83;10.07;;;;;;;21.09;45.97;101411.44;5029595;28;20094;-71
2022/06/01 02:26:16;;;;;;;14.27;10.30;;;;;;;21.08;45.79;101419.50;5027097;28;20025;-70
2022/06/01 02:28:43;;;;;;;13.70;9.77;;;;;;;20.03;48.72;101429.19;5031076;28;20064;-70
2022/06/01 02:31:11;;;;;;;12.13;9.20;;;;;;;19.49;50.31;101440.97;5032083;28;20025;-71
2022/06/01 02:33:39;;;;;;;9.80;7.70;;;;;;;19.01;52.17;101431.22;5029829;28;20024;-71
2022/06/01 02:36:07;;;;;;;13.17;9.13;;;;;;;19.03;53.77;101426.75;5030658;28;20068;-71
2022/06/01 02:38:45;;;;;;;15.33;9.63;;;;;;;18.71;52.95;101441.97;5028165;28;20018;-72
2022/06/01 02:42:25;;;;;;;12.10;8.50;;;;;;;18.44;54.28;101436.69;5030432;28;20086;-70
2022/06/01 02:43:57;;;;;;;10.67;4.07;;;;;;;17.94;50.99;101444.47;5031648;28;20053;-64
2022/06/01 02:46:23;;;;;;;10.63;3.13;;;;;;;17.35;50.40;101440.03;5031096;28;20057;-65
2022/06/01 02:48:49;;;;;;;5.60;2.00;;;;;;;17.29;49.66;101438.44;5030709;28;20056;-67
2022/06/01 02:51:17;;;;;;;2.87;1.50;;;;;;;17.18;48.82;101433.44;5029248;28;20017;-67
2022/06/01 02:53:42;;;;;;;5.07;1.43;;;;;;;16.96;53.01;101430.53;5028346;28;20068;-68
2022/06/01 02:56:08;;;;;;;3.00;1.57;;;;;;;17.84;55.08;101428.00;5030252;28;20385;-68
2022/06/01 02:58:34;;;;;;;8.90;1.77;;;;;;;17.45;51.32;101418.56;5058904;28;20029;-69
2022/06/01 03:01:00;;;;;;;3.50;1.63;;;;;;;17.79;52.71;101414.91;5030248;28;20025;-70
2022/06/01 03:03:25;;;;;;;2.87;1.80;;;;;;;18.23;54.40;101409.16;5029378;28;20063;-71
2022/06/01 03:05:51;;;;;;;2.20;1.93;;;;;;;18.75;51.33;101400.34;5028808;28;20148;-70
2022/06/01 03:08:16;;;;;;;3.50;2.00;;;;;;;18.94;49.68;101400.59;5030951;28;20036;-70
2022/06/01 03:10:42;;;;;;;6.33;2.40;;;;;;;18.82;51.08;101402.72;5033288;28;20021;-70
2022/06/01 03:13:07;;;;;;;3.33;2.30;;;;;;;18.55;51.23;101409.84;5033532;28;20101;-70
2022/06/01 03:15:33;;;;;;;3.90;2.43;;;;;;;18.71;50.97;101406.66;5034895;28;20040;-70
2022/06/01 03:17:58;;;;;;;3.43;2.93;;;;;;;18.69;49.81;101409.38;5034911;28;20026;-70
2022/06/01 03:20:26;;;;;;;6.93;2.37;;;;;;;18.69;50.43;101400.56;5034264;28;20038;-70
2022/06/01 03:22:53;;;;;;;6.40;2.80;;;;;;;18.58;50.46;101408.88;5033710;28;20513;-71
2022/06/01 03:25:24;;;;;;;5.97;2.80;;;;;;;18.32;51.29;101413.28;5034744;28;20025;-70
2022/06/01 03:27:57;;;;;;;6.00;3.10;;;;;;;18.24;51.01;101404.72;5033974;28;20439;-70
2022/06/01 03:30:23;;;;;;;6.22;3.30;;;;;;;18.03;51.19;101407.16;5034336;28;20089;-71
2022/06/01 03:32:49;;;;;;;5.07;2.90;;;;;;;18.24;50.33;101410.00;5031828;28;20102;-70
2022/06/01 03:35:17;;;;;;;8.93;3.00;;;;;;;18.34;49.46;101400.88;5031306;28;20033;-71
2022/06/01 03:37:43;;;;;;;4.57;2.73;;;;;;;18.07;50.94;101403.50;5033482;28;20409;-70
2022/06/01 03:40:09;;;;;;;3.23;2.20;;;;;;;18.20;49.35;101403.94;5033132;28;20033;-70
2022/06/01 03:42:34;;;;;;;4.53;2.60;;;;;;;18.19;49.15;101411.94;5034228;28;20025;-70
2022/06/01 03:47:44;;;;;;;2.20;2.00;;;;;;;17.60;51.13;101413.75;5024055;28;20056;-71
2022/06/01 03:50:11;;;;;;;4.00;1.90;;;;;;;17.97;50.17;101424.09;5033209;28;20469;-70
2022/06/01 03:52:37;;;;;;;2.70;1.87;;;;;;;17.99;50.47;101409.97;5034880;28;20026;-70
2022/06/01 03:55:03;;;;;;;2.30;1.77;;;;;;;17.79;51.51;101409.63;5022266;28;20545;-71
2022/06/01 03:57:29;;;;;;;3.47;2.17;;;;;;;17.94;50.62;101418.03;5016306;28;20021;-70
2022/06/01 03:59:54;;;;;;;3.03;2.13;;;;;;;17.80;49.97;101421.06;5025726;28;20033;-70
2022/06/01 04:02:19;;;;;;;4.37;2.03;;;;;;;17.77;50.44;101422.03;5033294;28;20033;-70
2022/06/01 04:04:45;;;;;;;2.43;2.20;;;;;;;17.96;50.04;101416.22;5033790;28;20107;-70
2022/06/01 04:07:10;;;;;;;2.30;2.10;;;;;;;18.03;50.18;101420.38;5032775;28;20034;-70
2022/06/01 04:09:36;;;;;;;3.67;1.80;;;;;;;17.96;50.44;101421.50;5032742;28;20075;-71
2022/06/01 04:12:01;;;;;;;2.70;2.10;;;;;;;18.06;49.67;101427.34;5033919;28;20029;-71
2022/06/01 04:14:27;;;;;;;5.13;2.13;;;;;;;18.26;48.61;101429.38;5031087;28;20451;-70
2022/06/01 04:16:52;;;;;;;2.33;2.13;;;;;;;17.93;50.19;101426.88;5034438;28;20033;-70
2022/06/01 04:19:18;;;;;;;2.70;2.33;;;;;;;18.23;49.58;101429.44;5031010;28;20074;-70
2022/06/01 04:21:47;;;;;;;4.30;2.13;;;;;;;18.29;48.96;101429.25;5030177;28;20061;-71
2022/06/01 04:24:16;;;;;;;3.50;2.37;;;;;;;18.24;48.56;101436.47;5033612;28;20052;-71
2022/06/01 04:26:42;;;;;;;3.30;2.47;;;;;;;17.85;49.52;101429.72;5034160;28;20025;-70
2022/06/01 04:29:07;;;;;;;3.40;2.87;;;;;;;17.69;49.20;101421.38;5032598;28;20045;-70
2022/06/01 04:31:33;;;;;;;3.10;2.60;;;;;;;18.33;48.47;101420.31;5033406;28;20443;-70
2022/06/01 04:33:59;;;;;;;5.43;2.83;;;;;;;18.20;48.92;101413.69;5034104;28;20017;-70
2022/06/01 04:36:25;;;;;;;3.90;2.80;;;;;;;18.36;48.78;101417.53;5032391;28;20102;-70
2022/06/01 04:38:51;;;;;;;3.83;2.83;;;;;;;18.50;47.96;101427.66;5019172;28;20025;-70
2022/06/01 04:41:17;;;;;;;5.07;2.73;;;;;;;18.55;47.58;101419.59;5033925;28;20028;-70
2022/06/01 04:43:42;;;;;;;4.47;3.57;;;;;;;19.42;47.34;101423.53;5033835;28;20027;-70
2022/06/01 04:46:07;;;;;;;7.83;3.80;;;;;;;20.02;47.52;101422.16;5033186;28;20021;-70
2022/06/01 04:48:33;;;;;;;3.87;3.50;;;;;;;20.57;45.31;101419.03;5032359;28;20418;-70
2022/06/01 04:50:58;;;;;;;4.40;2.93;;;;;;;21.35;43.46;101420.88;5030882;28;20057;-70
2022/06/01 04:53:25;;;;;;;2.87;2.60;;;;;;;21.10;44.88;101423.81;5030818;28;20415;-71
2022/06/01 04:55:50;;;;;;;3.07;2.30;;;;;;;20.46;43.57;101428.28;5033657;28;20041;-70
2022/06/01 04:58:16;;;;;;;2.03;1.80;;;;;;;20.97;44.08;101426.13;5033473;28;20088;-70
2022/06/01 05:00:42;;;;;;;2.30;1.80;;;;;;;19.94;45.11;101441.06;5030868;28;20480;-71
2022/06/01 05:03:08;;;;;;;1.53;1.43;;;;;;;19.28;46.05;101428.50;5033242;28;20034;-71
2022/06/01 05:05:39;;;;;;;1.93;1.83;;;;;;;20.44;44.20;101431.94;5030134;28;20029;-70
2022/06/01 05:08:05;;;;;;;2.00;1.80;;;;;;;20.16;44.67;101428.63;5032007;28;20098;-70
2022/06/01 05:10:31;;;;;;;2.60;2.30;;;;;;;19.79;45.32;101427.41;5033571;28;20159;-70
2022/06/01 05:12:57;;;;;;;2.60;2.40;;;;;;;20.10;44.47;101426.25;5031672;28;20045;-70
2022/06/01 05:15:22;;;;;;;5.60;3.07;;;;;;;19.44;46.62;101432.31;5028218;28;20021;-70
2022/06/01 05:17:47;;;;;;;4.00;3.37;;;;;;;19.64;46.63;101428.03;5033120;28;20521;-70
2022/06/01 05:20:13;;;;;;;5.40;4.13;;;;;;;19.05;48.17;101438.16;5031427;28;20037;-70
2022/06/01 05:22:39;;;;;;;5.43;4.10;;;;;;;18.96;49.17;101433.19;5032991;28;20029;-71
2022/06/01 05:25:05;;;;;;;5.07;4.10;;;;;;;18.70;49.94;101434.94;5030609;28;20040;-71
2022/06/01 05:27:31;;;;;;;10.10;4.40;;;;;;;19.06;49.88;101439.88;5031943;28;20029;-70
2022/06/01 05:29:57;;;;;;;6.70;4.60;;;;;;;19.53;48.80;101446.13;5032879;28;20041;-70
2022/06/01 05:32:22;;;;;;;8.80;5.53;;;;;;;19.64;48.33;101434.19;5032972;28;20021;-70
2022/06/01 05:34:48;;;;;;;5.87;5.20;;;;;;;19.62;49.01;101451.09;5028163;28;20473;-70
2022/06/01 05:37:13;;;;;;;7.77;6.27;;;;;;;20.21;47.62;101443.50;5029890;28;20033;-70
2022/06/01 05:39:39;;;;;;;9.23;6.53;;;;;;;20.61;46.51;101445.38;5032036;28;20033;-70
2022/06/01 05:42:05;;;;;;;10.60;6.63;;;;;;;20.57;46.76;101446.44;5032257;28;20037;-70
2022/06/01 05:44:30;;;;;;;11.07;7.07;;;;;;;20.37;48.08;101457.88;5030814;28;20041;-70
2022/06/01 05:46:57;;;;;;;11.07;7.90;;;;;;;20.84;47.09;101449.72;5030240;28;20401;-70
2022/06/01 05:49:23;;;;;;;13.90;8.23;;;;;;;20.63;47.83;101459.44;5030325;28;20473;-71
2022/06/01 05:51:49;;;;;;;10.93;8.03;;;;;;;21.08;47.38;101456.69;5034122;28;20033;-70
2022/06/01 05:54:14;;;;;;;15.00;9.93;;;;;;;21.15;46.80;101453.69;5030185;28;20033;-71
2022/06/01 05:56:40;;;;;;;14.67;9.80;;;;;;;21.51;46.44;101449.41;5031278;28;20476;-70
2022/06/01 05:59:05;;;;;;;14.70;9.90;;;;;;;21.93;45.96;101450.19;5031000;28;20117;-70
2022/06/01 06:01:31;;;;;;;14.50;9.90;;;;;;;21.32;47.41;101446.75;5030619;28;20432;-70
2022/06/01 06:03:56;;;;;;;19.30;10.70;;;;;;;21.30;47.81;101457.44;5030021;28;20040;-71
2022/06/01 06:06:23;;;;;;;13.50;9.93;;;;;;;20.89;49.44;101461.94;5060767;28;20029;-71
2022/06/01 06:08:56;;;;;;;15.03;8.63;;;;;;;20.73;50.13;101456.44;5032221;28;20428;-70
2022/06/01 06:11:24;;;;;;;16.27;10.05;;;;;;;19.44;54.39;101461.47;5031539;28;20025;-71
2022/06/01 06:13:50;;;;;;;14.57;9.98;;;;;;;21.40;48.98;101452.56;5031656;28;20481;-71
2022/06/01 06:16:16;;;;;;;12.87;8.73;;;;;;;22.36;46.41;101454.28;5030660;28;20033;-70
2022/06/01 06:18:42;;;;;;;15.93;8.48;;;;;;;21.29;48.41;101455.72;5024945;28;20025;-70
2022/06/01 06:21:07;;;;;;;13.02;8.07;;;;;;;23.09;45.24;101455.91;5035877;28;20079;-70
2022/06/01 06:23:33;;;;;;;12.50;7.82;;;;;;;24.56;42.49;101464.69;5030468;28;20091;-70
2022/06/01 06:25:59;;;;;;;12.63;7.00;;;;;;;24.31;41.11;101475.06;5029650;28;20116;-70
2022/06/01 06:28:25;;;;;;;7.65;6.00;;;;;;;24.82;40.73;101464.94;5030867;28;20592;-70
2022/06/01 06:30:51;;;;;;;7.47;5.45;;;;;;;24.74;40.55;101472.56;5030155;28;20490;-71
2022/06/01 06:33:17;;;;;;;6.72;5.13;;;;;;;24.86;38.50;101477.19;5028450;28;20025;-71
2022/06/01 06:35:44;;;;;;;6.32;4.60;;;;;;;27.24;36.51;101469.84;5024968;28;20021;-71
2022/06/01 06:38:10;;;;;;;6.30;4.00;;;;;;;28.21;35.35;101474.59;5033771;28;20419;-70
2022/06/01 06:40:37;;;;;;;4.97;3.65;;;;;;;26.45;35.73;101485.06;5024263;28;20497;-70
2022/06/01 06:43:02;;;;;;;4.13;3.13;;;;;;;25.94;36.84;101479.47;5029508;28;20053;-71
2022/06/01 06:45:28;;;;;;;4.72;3.35;;;;;;;27.06;36.01;101476.50;5032608;28;20457;-70
2022/06/01 06:47:53;;;;;;;4.80;3.03;;;;;;;27.67;33.36;101476.69;5037724;28;20010;-70
2022/06/01 06:50:19;;;;;;;4.13;2.53;;;;;;;26.07;35.08;101493.81;5032299;28;20110;-71
2022/06/01 06:52:45;;;;;;;4.43;2.47;;;;;;;26.68;35.49;101488.88;5035839;28;20025;-71
2022/06/01 06:55:11;;;;;;;2.92;2.20;;;;;;;28.85;32.30;101487.66;5042547;28;20032;-70
2022/06/01 06:57:37;;;;;;;3.20;2.03;;;;;;;28.59;32.23;101487.81;5037020;28;20029;-71
2022/06/01 07:00:07;;;;;;;3.75;2.20;;;;;;;28.29;31.58;101484.75;5069727;28;20055;-70
2022/06/01 07:02:33;;;;;;;1.60;1.50;;;;;;;26.59;32.94;101498.38;5036129;28;20027;-71
2022/06/01 07:04:59;;;;;;;2.20;1.70;;;;;;;28.44;30.88;101494.34;5035025;28;20116;-71
2022/06/01 07:07:24;;;;;;;6.80;1.77;;;;;;;27.00;32.69;101503.75;5036249;28;20021;-71
2022/06/01 07:09:49;;;;;;;1.95;1.70;;;;;;;27.49;31.23;101502.16;5036964;28;20040;-71
2022/06/01 07:12:15;;;;;;;5.38;2.08;;;;;;;28.16;32.28;101501.78;5070062;28;20388;-71
2022/06/01 07:14:40;;;;;;;3.15;1.92;;;;;;;29.16;29.49;101500.56;5032821;28;20029;-71
2022/06/01 07:17:06;;;;;;;1.73;1.63;;;;;;;30.34;31.12;101502.78;5028938;28;20017;-70
2022/06/01 07:19:31;;;;;;;3.72;1.48;;;;;;;28.18;29.85;101515.97;5038129;28;20029;-71
2022/06/01 07:21:57;;;;;;;3.08;1.70;;;;;;;28.80;30.53;101506.00;5035829;28;20080;-70
2022/06/01 07:24:23;;;;;;;2.25;1.35;;;;;;;27.04;32.38;101510.63;5053404;28;20431;-71
2022/06/01 07:26:49;;;;;;;1.55;1.38;;;;;;;28.10;30.83;101507.63;5036642;28;20469;-71
2022/06/01 07:29:18;;;;;;;3.92;1.40;;;;;;;26.62;31.73;101513.41;5037226;28;20050;-71
2022/06/01 07:31:45;;;;;;;2.85;1.23;;;;;;;26.26;31.65;101508.69;5037590;28;20052;-71
2022/06/01 07:34:10;;;;;;;2.05;1.58;;;;;;;27.31;32.41;101510.50;5035779;28;20594;-70
2022/06/01 07:36:36;;;;;;;1.38;1.25;;;;;;;28.21;31.16;101514.88;5034937;28;20029;-70
2022/06/01 07:44:37;;;;;;;1.65;1.13;;;;;;;28.85;31.21;101514.56;5057931;28;20558;-70
2022/06/01 07:47:03;;;;;;;2.53;1.50;;;;;;;27.38;29.36;101510.97;5024600;28;20030;-71
2022/06/01 07:49:28;;;;;;;2.78;1.17;;;;;;;28.16;29.17;101517.06;5028650;28;20028;-70
2022/06/01 07:51:54;;;;;;;2.38;1.00;;;;;;;27.32;29.52;101516.75;5035179;28;20090;-71
2022/06/01 07:54:20;;;;;;;2.40;1.50;;;;;;;26.57;31.97;101524.44;5037544;28;20033;-70
2022/06/01 07:56:46;;;;;;;2.00;1.38;;;;;;;26.26;33.51;101522.94;5033649;28;20037;-71
2022/06/01 07:59:12;;;;;;;4.32;1.90;;;;;;;28.83;30.67;101521.03;5026639;28;20393;-71
2022/06/01 08:01:38;;;;;;;2.88;1.60;;;;;;;28.18;30.20;101525.84;5033631;28;20029;-71
2022/06/01 08:04:05;;;;;;;2.00;1.40;;;;;;;26.43;32.38;101521.81;5032358;28;20022;-71
2022/06/01 08:06:31;;;;;;;1.80;1.67;;;;;;;25.81;32.36;101528.44;5033132;28;20034;-70
2022/06/01 08:08:57;;;;;;;3.13;1.60;;;;;;;26.76;32.36;101528.59;5036966;28;20512;-71
2022/06/01 08:14:07;;;;;;;2.70;1.88;;;;;;;28.09;28.89;101513.97;5033262;28;20099;-70
2022/06/01 08:16:33;;;;;;;2.45;1.80;;;;;;;25.11;32.88;101528.31;5025083;28;20037;-71
2022/06/01 08:18:58;;;;;;;1.75;1.60;;;;;;;25.88;32.40;101527.13;5031387;28;20413;-70
2022/06/01 08:21:24;;;;;;;1.50;1.40;;;;;;;25.49;32.02;101528.66;5033324;28;20065;-71
2022/06/01 08:23:49;;;;;;;3.88;1.40;;;;;;;23.97;34.41;101535.72;5030721;28;20021;-71
2022/06/01 08:26:14;;;;;;;1.63;1.45;;;;;;;26.16;32.53;101527.16;5032514;28;20550;-71
2022/06/01 08:28:40;;;;;;;2.30;1.10;;;;;;;25.28;31.87;101540.66;5033050;28;20037;-70
2022/06/01 08:31:05;;;;;;;1.73;1.05;;;;;;;25.71;33.64;101538.03;5064520;28;20455;-70
2022/06/01 08:33:31;;;;;;;2.50;1.20;;;;;;;27.28;29.86;101525.97;5033734;28;20025;-71
2022/06/01 08:35:56;;;;;;;2.00;1.58;;;;;;;29.15;29.02;101526.59;5032375;28;20013;-71
2022/06/01 08:38:22;;;;;;;2.10;1.30;;;;;;;28.51;27.36;101527.84;5036497;28;20465;-71
2022/06/01 08:41:03;;;;;;;2.33;1.08;;;;;;;28.70;26.54;101523.78;5040180;28;20029;-71
2022/06/01 08:43:33;;;;;;;2.33;1.05;;;;;;;31.30;25.66;101523.38;5032047;28;20032;-71
2022/06/01 08:46:01;;;;;;;2.15;1.40;;;;;;;28.42;26.14;101539.28;5040187;28;20762;-71
2022/06/01 08:48:40;;;;;;;0.90;0.77;;;;;;;29.46;26.95;101529.59;5032949;28;20071;-71
2022/06/01 08:51:06;;;;;;;1.88;1.20;;;;;;;26.38;29.31;101540.03;5031268;28;20025;-71
2022/06/01 08:53:33;;;;;;;1.05;0.82;;;;;;;29.36;27.53;101551.00;5028627;28;20112;-71
2022/06/01 08:56:09;;;;;;;1.58;1.23;;;;;;;31.22;25.04;101536.69;5017501;28;20139;-71
2022/06/01 08:58:44;;;;;;;1.73;0.98;;;;;;;29.00;24.90;101550.16;5032452;28;20136;-71
2022/06/01 09:01:33;;;;;;;2.08;1.20;;;;;;;30.82;26.29;101533.81;5032954;28;20061;-71
2022/06/01 09:04:21;;;;;;;1.58;1.30;;;;;;;28.65;26.53;101536.75;5025476;28;20452;-70
2022/06/01 09:06:57;;;;;;;2.80;1.23;;;;;;;26.88;28.68;101543.84;5042785;28;20045;-70
2022/06/01 09:09:39;;;;;;;1.98;1.08;;;;;;;25.77;30.03;101551.03;5013015;28;20025;-70
2022/06/01 09:12:05;;;;;;;0.90;0.90;;;;;;;26.94;28.99;101549.75;5013613;28;20036;-71
2022/06/01 09:14:35;;;;;;;2.65;1.05;;;;;;;27.50;27.94;101542.31;5025396;28;20029;-71
2022/06/01 09:17:02;;;;;;;2.85;1.08;;;;;;;27.26;28.76;101551.09;5032385;28;20033;-71
2022/06/01 09:22:37;;;;;;;3.83;1.33;;;;;;;25.48;30.83;101548.34;5032322;28;20485;-70
2022/06/01 09:25:08;;;;;;;1.50;1.40;;;;;;;23.98;33.35;101561.50;5018324;28;20123;-71
2022/06/01 09:27:47;;;;;;;1.95;1.40;;;;;;;26.00;30.76;101551.38;5032313;28;20139;-71
2022/06/01 09:30:25;;;;;;;1.85;1.20;;;;;;;26.14;29.03;101554.06;5030547;28;20398;-71
2022/06/01 09:33:20;;;;;;;1.75;1.00;;;;;;;25.38;31.32;101563.25;5032928;28;20473;-71
2022/06/01 09:36:09;;;;;;;1.83;1.10;;;;;;;26.46;29.66;101559.16;5031951;28;20029;-71
2022/06/01 09:38:53;;;;;;;2.22;1.27;;;;;;;27.69;27.23;101557.97;5030465;28;20397;-71
2022/06/01 09:41:40;;;;;;;1.67;1.30;;;;;;;27.06;28.38;101562.34;5029471;28;20036;-71
2022/06/01 09:44:10;;;;;;;1.30;1.20;;;;;;;25.28;32.12;101570.09;5056259;28;20038;-71
2022/06/01 09:46:49;;;;;;;2.28;1.25;;;;;;;23.84;33.46;101573.75;5029021;28;20028;-70
2022/06/01 09:49:27;;;;;;;1.63;1.23;;;;;;;25.11;32.31;101571.97;5040890;28;20029;-71
2022/06/01 09:52:16;;;;;;;1.05;1.00;;;;;;;26.50;28.78;101562.47;5054963;28;20175;-71
2022/06/01 09:54:44;;;;;;;1.02;1.00;;;;;;;25.43;31.17;101579.03;5029442;28;20094;-70
2022/06/01 09:57:25;;;;;;;1.65;1.15;;;;;;;27.29;28.55;101570.63;5031611;28;20059;-71
2022/06/01 10:08:29;;;;;;;5.38;1.90;;;;;;;27.05;28.81;101574.03;5012824;28;20048;-71
2022/06/01 10:11:25;;;;;;;1.95;1.15;;;;;;;24.99;31.08;101583.38;5017847;28;20108;-71
2022/06/01 10:13:54;;;;;;;1.30;1.20;;;;;;;25.65;30.16;101583.91;5025465;28;20018;-71
2022/06/01 10:16:30;;;;;;;3.35;1.52;;;;;;;24.82;31.64;101582.56;5028970;28;20580;-71
2022/06/01 10:18:57;;;;;;;1.40;1.30;;;;;;;25.36;30.68;101597.25;5028026;28;20112;-70
2022/06/01 10:21:28;;;;;;;1.40;1.30;;;;;;;26.21;29.98;101590.22;5031146;28;20021;-70
2022/06/01 10:24:07;;;;;;;1.92;1.25;;;;;;;25.21;30.80;101594.53;5029649;28;20049;-70
2022/06/01 10:26:37;;;;;;;2.92;1.30;;;;;;;24.01;32.30;101596.88;5019408;28;20036;-70
2022/06/01 10:29:19;;;;;;;1.50;1.40;;;;;;;25.76;30.97;101584.13;5031510;28;20060;-71
2022/06/01 10:31:58;;;;;;;1.40;1.10;;;;;;;24.82;31.90;101593.25;5025764;28;20022;-71
2022/06/01 10:35:13;;;;;;;2.42;1.33;;;;;;;25.11;31.40;101606.72;5023642;28;20037;-71
2022/06/01 10:38:06;;;;;;;2.25;1.20;;;;;;;25.41;31.08;101608.56;5017667;28;20033;-71
2022/06/01 10:40:35;;;;;;;;;;;;;;;25.52;29.62;101602.56;5021480;28;20419;-71
2022/06/01 10:43:17;;;;;;;1.17;1.08;;;;;;;25.60;30.15;101600.28;5028840;28;20336;-70
2022/06/01 10:46:00;;;;;;;1.70;1.60;;;;;;;23.72;34.22;101617.09;5028611;28;20057;-71
2022/06/01 10:48:30;;;;;;;2.65;1.30;;;;;;;25.24;32.64;101606.88;5031673;28;20112;-71
2022/06/01 10:51:13;;;;;;;2.00;1.60;;;;;;;25.55;30.99;101621.97;5025612;28;20065;-70
2022/06/01 10:53:59;;;;;;;3.03;1.80;;;;;;;24.39;32.55;101617.06;5053336;28;20509;-71
2022/06/01 10:56:26;;;;;;;4.70;1.40;;;;;;;25.05;31.67;101612.47;5044535;28;20033;-71
2022/06/01 10:58:55;;;;;;;2.88;1.48;;;;;;;24.51;32.17;101611.03;5028879;28;20036;-72
2022/06/01 11:01:55;;;;;;;3.15;1.00;;;;;;;25.54;30.57;101617.56;5027887;28;20029;-71
2022/06/01 11:04:51;;;;;;;2.55;1.00;;;;;;;24.71;31.11;101617.09;5030006;28;20049;-71
2022/06/01 11:07:52;;;;;;;2.05;1.42;;;;;;;25.28;31.88;101620.91;5029879;28;20033;-71
2022/06/01 11:10:36;;;;;;;1.58;1.48;;;;;;;24.94;31.70;101622.94;5014031;28;20073;-71
2022/06/01 11:13:26;;;;;;;2.20;1.50;;;;;;;24.69;33.01;101609.16;5010813;28;20072;-71
2022/06/01 11:16:16;;;;;;;2.63;1.70;;;;;;;24.95;32.38;101632.66;5011487;28;20049;-70
2022/06/01 11:19:15;;;;;;;2.97;1.30;;;;;;;26.30;30.51;101622.75;5029633;28;20034;-70
2022/06/01 11:21:43;;;;;;;2.08;1.45;;;;;;;26.06;29.72;101615.28;5043082;28;20055;-72
2022/06/01 11:24:18;;;;;;;2.28;1.67;;;;;;;24.63;32.21;101630.03;5030283;28;20456;-71
2022/06/01 11:27:16;;;;;;;2.65;1.20;;;;;;;25.59;31.05;101629.81;5023544;28;20022;-71
2022/06/01 11:29:53;;;;;;;1.65;1.30;;;;;;;27.30;29.53;101615.25;5013192;28;20049;-70
2022/06/01 11:32:25;;;;;;;0.90;0.90;;;;;;;27.68;27.70;101638.63;5037590;28;20029;-71
2022/06/01 11:35:11;;;;;;;1.35;1.10;;;;;;;27.04;28.78;101631.34;5041775;28;20038;-72
2022/06/01 11:37:55;;;;;;;1.70;1.60;;;;;;;26.99;27.99;101636.16;5029229;28;20116;-71
2022/06/01 11:40:36;;;;;;;1.75;0.93;;;;;;;24.82;31.69;101638.72;5008476;28;21558;-71
2022/06/01 11:43:18;;;;;;;2.05;1.00;;;;;;;26.44;28.89;101646.81;5030623;28;20207;-71
2022/06/01 11:45:53;;;;;;;1.92;1.05;;;;;;;26.73;29.49;101638.72;5023945;28;20030;-72
2022/06/01 11:48:31;;;;;;;2.60;1.20;;;;;;;25.04;30.70;101646.34;5044385;28;20056;-71
2022/06/01 11:51:14;;;;;;;1.30;1.20;;;;;;;24.99;31.54;101658.25;5033414;28;20022;-71
2022/06/01 11:54:00;;;;;;;2.08;1.42;;;;;;;24.74;32.07;101651.66;5026414;28;20037;-72
2022/06/01 11:56:30;;;;;;;3.70;2.03;;;;;;;24.96;31.75;101645.06;5028738;28;20036;-71
2022/06/01 11:59:15;;;;;;;3.35;2.63;;;;;;;25.50;31.72;101648.16;5022450;28;20466;-71
2022/06/01 12:01:41;;;;;;;3.67;2.90;;;;;;;24.78;32.14;101645.19;5023826;28;20037;-70
2022/06/01 12:04:29;;;;;;;3.95;3.03;;;;;;;25.30;31.95;101651.13;5037014;28;20366;-71
2022/06/01 12:07:15;;;;;;;2.75;2.45;;;;;;;24.35;32.66;101652.94;5035577;28;20125;-70